Victory, Vermont
Current Conditions -  °F | °C
As of 10:55 PM on Thursday 27 Nov 2014 (Local Time) from KCDA Reporting Station
Overcast Overcast  
Wind Chill: -5°   Ceiling: 1700
Heat Index: -5°   Visibility: 10mi
Dew Point: -8°   Wind: 0mph
Humidity: 80%   Direction: NA
Pressure: 30"   Gusts: NA
Location:  44.5627°N, 71.7775°W
Report Text: KCDA 280355Z AUTO 00000KT 10SM OVC017 M05/M08 A3000 RMK AO2 T10471076
Loading
Personal Weather Stations






























Interactive Weather Map New forecast layout! Learn more

10-Day Weather Forecast

Advertisements
Track Severe Weather on mobile